Time;durP1;ratioP1;P1;durP2;ratioP2;P2;SDS_P1;SDS_P2;PMS_P1;PMS_P2;Temp;Humidity;BMP_temperature;BMP_pressure;BME280_temperature;BME280_humidity;BME280_pressure;Samples;Min_cycle;Max_cycle;Signal;HPM_P1;HPM_P2
2023/05/16 00:02:24;;;;;;;7.07;2.58;;;8.20;99.90;;;;;;4895895;29;20476;-81
2023/05/16 00:04:50;;;;;;;6.43;2.55;;;8.30;99.90;;;;;;4897078;29;20065;-81
2023/05/16 00:07:19;;;;;;;7.70;2.80;;;8.30;99.90;;;;;;4896469;29;20045;-81
2023/05/16 00:09:46;;;;;;;9.75;2.90;;;8.30;99.90;;;;;;4880755;29;20044;-81
2023/05/16 00:12:13;;;;;;;10.73;2.80;;;8.20;99.90;;;;;;4896640;29;20048;-81
2023/05/16 00:14:39;;;;;;;13.35;2.25;;;8.10;99.90;;;;;;4896482;29;20056;-81
2023/05/16 00:19:36;;;;;;;8.65;2.70;;;8.10;99.90;;;;;;4881768;29;20456;-81
2023/05/16 00:22:03;;;;;;;8.25;2.55;;;8.00;99.90;;;;;;4895599;29;20041;-81
2023/05/16 00:24:29;;;;;;;9.27;3.03;;;8.10;99.90;;;;;;4896387;29;20045;-80
2023/05/16 00:26:56;;;;;;;11.50;2.80;;;8.10;99.90;;;;;;4878903;29;20042;-81
2023/05/16 00:29:23;;;;;;;8.77;3.25;;;8.20;99.90;;;;;;4879610;29;20546;-80
2023/05/16 00:31:50;;;;;;;7.70;3.00;;;8.20;99.90;;;;;;4896353;29;20449;-82
2023/05/16 00:34:16;;;;;;;12.68;3.00;;;8.20;99.90;;;;;;4896645;29;20133;-81
2023/05/16 00:36:45;;;;;;;8.80;3.10;;;8.30;99.90;;;;;;4895469;29;20041;-81
2023/05/16 00:39:13;;;;;;;10.80;3.58;;;8.20;99.90;;;;;;4895917;29;20045;-82
2023/05/16 00:41:40;;;;;;;9.35;2.60;;;8.10;99.90;;;;;;4881533;29;20040;-82
2023/05/16 00:44:07;;;;;;;9.07;3.00;;;8.10;99.90;;;;;;4880899;29;20097;-81
2023/05/16 00:46:35;;;;;;;10.93;3.20;;;8.10;99.90;;;;;;4880399;29;20064;-81
2023/05/16 00:49:01;;;;;;;12.18;3.03;;;8.10;99.90;;;;;;4895049;29;20081;-82
2023/05/16 00:51:28;;;;;;;8.82;3.55;;;8.10;99.90;;;;;;4880425;29;20049;-81
2023/05/16 00:53:55;;;;;;;18.17;3.72;;;8.20;99.90;;;;;;4880384;29;20068;-81
2023/05/16 00:59:08;;;;;;;7.88;2.88;;;8.40;99.90;;;;;;4895499;29;20056;-81
2023/05/16 01:01:35;;;;;;;9.20;2.90;;;8.40;99.90;;;;;;4880013;29;20060;-82
2023/05/16 01:04:02;;;;;;;13.10;3.70;;;8.50;99.90;;;;;;4879391;29;20049;-81
2023/05/16 01:06:29;;;;;;;17.00;3.25;;;8.50;99.90;;;;;;4864872;29;20041;-81
2023/05/16 01:08:56;;;;;;;14.05;3.55;;;8.60;99.90;;;;;;4863871;29;20139;-82
2023/05/16 01:11:23;;;;;;;7.93;2.85;;;8.60;99.90;;;;;;4895637;29;20060;-82
2023/05/16 01:13:50;;;;;;;9.73;3.03;;;8.60;99.90;;;;;;4895609;29;20087;-82
2023/05/16 01:16:17;;;;;;;7.78;2.88;;;8.60;99.90;;;;;;4880207;29;20044;-81
2023/05/16 01:18:44;;;;;;;8.88;3.10;;;8.60;99.90;;;;;;4895357;29;20045;-81
2023/05/16 01:21:12;;;;;;;11.93;3.45;;;8.60;99.90;;;;;;4864584;29;20051;-81
2023/05/16 01:23:39;;;;;;;11.23;3.38;;;8.70;99.90;;;;;;4879306;29;20064;-81
2023/05/16 01:28:52;;;;;;;8.20;3.42;;;8.70;99.90;;;;;;4878910;29;20076;-81
2023/05/16 01:31:18;;;;;;;11.00;3.20;;;8.60;99.90;;;;;;4895543;29;20044;-81
2023/05/16 01:33:45;;;;;;;7.60;3.13;;;8.60;99.90;;;;;;4880911;29;20041;-81
2023/05/16 01:39:02;;;;;;;7.72;2.67;;;8.60;99.90;;;;;;4879682;29;20049;-81
2023/05/16 01:41:29;;;;;;;8.98;2.80;;;8.60;99.90;;;;;;4879890;29;20068;-81
2023/05/16 01:43:56;;;;;;;12.13;2.97;;;8.60;99.90;;;;;;4863671;29;20484;-81
2023/05/16 01:46:25;;;;;;;7.15;2.80;;;8.60;99.90;;;;;;4880737;29;20045;-81
2023/05/16 01:48:51;;;;;;;9.82;2.90;;;8.60;99.90;;;;;;4879812;29;20073;-81
2023/05/16 01:51:18;;;;;;;10.05;3.38;;;8.60;99.90;;;;;;4895330;29;20057;-81
2023/05/16 01:53:45;;;;;;;8.70;2.83;;;8.60;99.90;;;;;;4864405;29;20089;-82
2023/05/16 01:58:58;;;;;;;9.18;3.08;;;8.60;99.90;;;;;;4880461;29;20194;-81
2023/05/16 02:01:24;;;;;;;8.88;3.10;;;8.70;99.90;;;;;;4864093;29;20062;-81
2023/05/16 02:03:51;;;;;;;9.90;2.97;;;8.70;99.90;;;;;;4878818;29;20053;-81
2023/05/16 02:09:05;;;;;;;8.20;2.95;;;8.60;99.90;;;;;;4879661;29;20055;-81
2023/05/16 02:11:32;;;;;;;9.40;3.17;;;8.60;99.90;;;;;;4895047;29;20065;-81
2023/05/16 02:13:58;;;;;;;9.48;3.65;;;8.60;99.90;;;;;;4895099;29;20494;-80
2023/05/16 02:16:27;;;;;;;13.52;3.53;;;8.50;99.90;;;;;;4878753;29;20046;-81
2023/05/16 02:18:54;;;;;;;8.50;3.25;;;8.40;99.90;;;;;;4894996;29;20052;-81
2023/05/16 02:21:21;;;;;;;11.10;2.95;;;8.30;99.90;;;;;;4894998;29;20461;-81
2023/05/16 02:23:47;;;;;;;10.05;3.30;;;8.20;99.90;;;;;;4894217;29;20050;-81
2023/05/16 02:29:00;;;;;;;12.02;3.53;;;8.10;99.90;;;;;;4893973;29;20048;-81
2023/05/16 02:31:27;;;;;;;7.75;3.00;;;8.00;99.90;;;;;;4881449;29;20350;-82
2023/05/16 02:33:53;;;;;;;8.65;3.05;;;7.90;99.90;;;;;;4898348;29;20084;-80
2023/05/16 02:36:21;;;;;;;11.15;3.20;;;7.90;99.90;;;;;;4881807;29;20037;-82
2023/05/16 02:38:48;;;;;;;7.70;2.85;;;7.90;99.90;;;;;;4883384;29;20056;-82
2023/05/16 02:41:14;;;;;;;11.45;3.20;;;7.80;99.90;;;;;;4898272;29;20041;-80
2023/05/16 02:43:42;;;;;;;6.63;2.70;;;7.70;99.90;;;;;;4897404;29;20041;-81
2023/05/16 02:46:12;;;;;;;8.90;3.00;;;7.70;99.90;;;;;;4882581;29;20045;-81
2023/05/16 02:48:39;;;;;;;13.48;3.40;;;7.60;99.90;;;;;;4881594;29;20172;-81
2023/05/16 02:51:05;;;;;;;9.85;3.35;;;7.60;99.90;;;;;;4898203;29;20464;-81
2023/05/16 02:53:32;;;;;;;13.98;3.28;;;7.50;99.90;;;;;;4882442;29;20061;-81
2023/05/16 02:56:01;;;;;;;7.60;2.78;;;7.40;99.90;;;;;;4897077;29;20057;-81
2023/05/16 02:58:28;;;;;;;8.25;2.55;;;7.40;99.90;;;;;;4882295;29;20067;-81
2023/05/16 03:00:56;;;;;;;11.95;2.90;;;7.40;99.90;;;;;;4897904;29;20053;-81
2023/05/16 03:03:22;;;;;;;9.25;2.78;;;7.40;99.90;;;;;;4881358;29;20067;-81
2023/05/16 03:05:50;;;;;;;9.50;3.00;;;7.30;99.90;;;;;;4882179;29;20048;-81
2023/05/16 03:08:17;;;;;;;8.60;2.72;;;7.30;99.90;;;;;;4897981;29;20048;-81
2023/05/16 03:10:44;;;;;;;7.13;2.95;;;7.30;99.90;;;;;;4881015;29;20499;-80
2023/05/16 03:13:12;;;;;;;8.75;2.90;;;7.30;99.90;;;;;;4882153;29;20053;-80
2023/05/16 03:15:38;;;;;;;9.10;3.10;;;7.20;99.90;;;;;;4896958;29;20492;-81
2023/05/16 03:18:06;;;;;;;9.85;3.10;;;7.20;99.90;;;;;;4882924;29;20045;-81
2023/05/16 03:20:33;;;;;;;10.95;2.95;;;7.20;99.90;;;;;;4882645;29;20113;-80
2023/05/16 03:22:59;;;;;;;16.08;3.08;;;7.10;99.90;;;;;;4896704;29;20048;-80
2023/05/16 03:25:27;;;;;;;8.60;2.85;;;7.10;99.90;;;;;;4882889;29;20045;-80
2023/05/16 03:27:55;;;;;;;8.32;2.67;;;7.10;99.90;;;;;;4897348;29;20061;-80
2023/05/16 03:30:21;;;;;;;10.57;2.70;;;7.00;99.90;;;;;;4882013;29;20437;-81
2023/05/16 03:32:48;;;;;;;8.55;2.80;;;7.00;99.90;;;;;;4897355;29;20053;-81
2023/05/16 03:35:15;;;;;;;10.55;3.00;;;7.00;99.90;;;;;;4881240;29;20067;-80
2023/05/16 03:40:27;;;;;;;5.05;1.98;;;6.90;99.90;;;;;;4882453;29;20465;-81
2023/05/16 03:42:53;;;;;;;7.00;2.75;;;6.90;99.90;;;;;;4895474;29;20037;-81
2023/05/16 03:45:20;;;;;;;5.82;2.42;;;6.80;99.90;;;;;;4881449;29;20144;-81
2023/05/16 03:47:48;;;;;;;7.57;2.67;;;6.80;99.90;;;;;;4882457;29;20045;-80
2023/05/16 03:50:15;;;;;;;9.77;2.67;;;6.80;99.90;;;;;;4896301;29;20081;-81
2023/05/16 03:52:41;;;;;;;5.72;2.42;;;6.70;99.90;;;;;;4896981;29;20433;-80
2023/05/16 03:55:08;;;;;;;6.93;2.80;;;6.60;99.90;;;;;;4884185;29;20053;-80
2023/05/16 03:57:35;;;;;;;7.55;2.97;;;6.50;99.90;;;;;;4884130;29;20479;-80
2023/05/16 04:00:02;;;;;;;8.10;2.47;;;6.50;99.90;;;;;;4885004;29;20045;-81
2023/05/16 04:02:36;;;;;;;10.27;2.53;;;6.50;99.90;;;;;;4866159;29;20434;-80
2023/05/16 04:05:03;;;;;;;6.25;2.50;;;6.50;99.90;;;;;;4878716;29;20140;-81
2023/05/16 04:07:32;;;;;;;8.07;2.42;;;6.50;99.90;;;;;;4878887;29;20056;-79
2023/05/16 04:09:59;;;;;;;10.60;2.95;;;6.50;99.90;;;;;;4877920;29;20064;-80
2023/05/16 04:12:26;;;;;;;10.73;2.53;;;6.50;99.90;;;;;;4878550;29;20056;-79
2023/05/16 04:14:52;;;;;;;7.38;2.80;;;6.50;99.90;;;;;;4863209;29;20128;-80
2023/05/16 04:20:05;;;;;;;8.90;2.92;;;6.50;99.90;;;;;;4863815;29;20057;-81
2023/05/16 04:22:32;;;;;;;7.25;2.42;;;6.50;99.90;;;;;;4862003;29;20041;-80
2023/05/16 04:24:59;;;;;;;11.90;2.53;;;6.50;99.90;;;;;;4877781;29;20052;-81
2023/05/16 04:27:27;;;;;;;7.40;2.35;;;6.50;99.90;;;;;;4877826;29;20056;-81
2023/05/16 04:29:55;;;;;;;10.25;2.55;;;6.50;99.90;;;;;;4876677;29;20397;-81
2023/05/16 04:32:22;;;;;;;10.93;2.60;;;6.40;99.90;;;;;;4877601;29;20053;-81
2023/05/16 04:34:52;;;;;;;10.55;2.60;;;6.40;99.90;;;;;;4863196;29;20073;-81
2023/05/16 04:40:06;;;;;;;8.27;2.80;;;6.40;99.90;;;;;;4862755;29;20056;-80
2023/05/16 04:42:33;;;;;;;6.28;2.60;;;6.40;99.90;;;;;;4876602;29;20046;-81
2023/05/16 04:45:02;;;;;;;6.63;2.15;;;6.40;99.90;;;;;;4877388;29;20058;-80
2023/05/16 04:47:31;;;;;;;8.05;2.33;;;6.50;99.90;;;;;;4861841;29;20041;-81
2023/05/16 04:49:57;;;;;;;8.90;2.60;;;6.50;99.90;;;;;;4876333;29;20049;-81
2023/05/16 04:52:24;;;;;;;7.43;2.67;;;6.60;99.90;;;;;;4862818;29;20098;-81
2023/05/16 04:54:51;;;;;;;5.15;2.10;;;6.70;99.90;;;;;;4862415;29;20078;-80
2023/05/16 04:57:20;;;;;;;6.55;2.40;;;6.70;99.90;;;;;;4861926;29;20040;-81
2023/05/16 04:59:46;;;;;;;8.23;2.72;;;6.80;99.90;;;;;;4876967;29;20060;-81
2023/05/16 05:02:13;;;;;;;9.73;3.25;;;6.90;99.90;;;;;;4875584;29;20409;-81
2023/05/16 05:04:40;;;;;;;7.97;2.95;;;7.00;99.90;;;;;;4881152;29;20056;-80
2023/05/16 05:10:11;;;;;;;11.23;3.03;;;7.10;99.90;;;;;;4880074;29;20073;-81
2023/05/16 05:12:38;;;;;;;8.52;2.70;;;7.30;99.90;;;;;;4881027;29;20053;-81
2023/05/16 05:15:05;;;;;;;11.65;3.30;;;7.40;99.90;;;;;;4895470;29;20055;-81
2023/05/16 05:20:05;;;;;;;12.20;3.47;;;7.60;99.90;;;;;;4895347;29;20073;-81
2023/05/16 05:22:32;;;;;;;11.52;3.10;;;7.70;99.90;;;;;;4894715;29;20088;-80
2023/05/16 05:24:59;;;;;;;12.27;2.95;;;7.90;99.90;;;;;;4895497;29;20053;-81
2023/05/16 05:27:27;;;;;;;9.38;2.97;;;8.00;99.90;;;;;;4880857;29;20463;-80
2023/05/16 05:29:54;;;;;;;8.65;2.90;;;8.10;99.90;;;;;;4894537;29;20124;-81
2023/05/16 05:32:20;;;;;;;8.90;3.20;;;8.20;99.90;;;;;;4880893;29;20469;-81
2023/05/16 05:34:47;;;;;;;9.45;3.00;;;8.30;99.90;;;;;;4880084;29;20076;-80
2023/05/16 05:37:15;;;;;;;8.18;3.33;;;8.40;99.90;;;;;;4878992;29;20380;-81
2023/05/16 05:39:42;;;;;;;16.67;4.15;;;8.50;99.90;;;;;;4880615;29;20045;-81
2023/05/16 05:42:08;;;;;;;7.50;3.05;;;8.60;99.90;;;;;;4879776;29;20044;-81
2023/05/16 05:44:36;;;;;;;9.27;3.13;;;8.70;99.90;;;;;;4879480;29;20117;-81
2023/05/16 05:47:03;;;;;;;11.00;3.17;;;8.80;99.90;;;;;;4894893;29;20045;-81
2023/05/16 05:49:30;;;;;;;10.35;3.42;;;9.00;99.90;;;;;;4894077;29;20049;-81
2023/05/16 05:51:56;;;;;;;12.63;3.38;;;9.10;99.90;;;;;;4880717;29;20468;-80
2023/05/16 05:54:23;;;;;;;8.95;3.10;;;9.30;99.90;;;;;;4895309;29;20049;-81
2023/05/16 05:56:52;;;;;;;10.35;3.10;;;9.40;99.90;;;;;;4879739;29;20067;-80
2023/05/16 05:59:18;;;;;;;8.75;2.92;;;9.50;99.90;;;;;;4895115;29;20045;-81
2023/05/16 06:01:45;;;;;;;9.65;2.63;;;9.60;99.90;;;;;;4870034;29;20058;-82
2023/05/16 06:04:12;;;;;;;11.35;3.22;;;9.70;99.90;;;;;;4861406;29;20064;-81
2023/05/16 06:06:39;;;;;;;8.65;3.08;;;9.80;99.90;;;;;;4863503;29;20041;-81
2023/05/16 06:09:06;;;;;;;15.15;2.85;;;9.90;99.90;;;;;;4879555;29;20064;-82
2023/05/16 06:11:32;;;;;;;6.82;2.30;;;10.00;99.90;;;;;;4880090;29;20443;-82
2023/05/16 06:13:59;;;;;;;9.23;2.78;;;10.10;99.90;;;;;;4880133;29;20053;-82
2023/05/16 06:18:58;;;;;;;10.82;2.78;;;10.30;99.90;;;;;;4865275;29;20132;-82
2023/05/16 06:21:24;;;;;;;12.07;2.95;;;10.40;99.90;;;;;;4865624;29;20045;-82
2023/05/16 06:23:51;;;;;;;8.82;2.58;;;10.50;99.90;;;;;;4879035;29;20056;-82
2023/05/16 06:29:03;;;;;;;11.27;2.92;;;10.60;99.90;;;;;;4865926;29;20113;-82
2023/05/16 06:31:38;;;;;;;7.28;2.40;;;10.70;99.90;;;;;;4871305;29;20049;-82
2023/05/16 06:34:22;;;;;;;12.20;2.70;;;10.90;99.90;;;;;;4873237;29;20046;-82
2023/05/16 06:39:36;;;;;;;12.70;2.65;;;11.20;99.90;;;;;;4882916;29;20048;-83
2023/05/16 06:42:02;;;;;;;14.07;2.50;;;11.30;99.90;;;;;;4881904;29;20114;-82
2023/05/16 06:44:31;;;;;;;13.68;2.95;;;11.40;99.90;;;;;;4866953;29;20119;-82
2023/05/16 06:50:04;;;;;;;9.93;2.70;;;11.40;99.90;;;;;;4881420;29;20124;-83
2023/05/16 06:52:31;;;;;;;9.35;2.28;;;11.60;99.90;;;;;;4867184;29;20136;-82
2023/05/16 06:54:57;;;;;;;10.45;2.17;;;11.80;99.90;;;;;;4867128;29;20065;-82
2023/05/16 06:57:28;;;;;;;8.88;2.17;;;12.00;99.90;;;;;;4882311;29;20055;-82
2023/05/16 06:59:54;;;;;;;12.45;2.47;;;12.10;99.90;;;;;;4897664;29;20465;-82
2023/05/16 07:02:21;;;;;;;12.77;2.15;;;12.30;99.90;;;;;;4882364;29;20049;-82
2023/05/16 07:04:51;;;;;;;10.77;2.22;;;12.40;99.90;;;;;;4897670;29;20064;-82
2023/05/16 07:10:03;;;;;;;10.07;2.15;;;12.60;99.90;;;;;;4882308;29;20101;-83
2023/05/16 07:12:30;;;;;;;9.05;2.30;;;12.70;99.90;;;;;;4866860;29;20041;-83
2023/05/16 07:14:56;;;;;;;9.20;2.00;;;12.70;99.90;;;;;;4882972;29;20524;-83
2023/05/16 07:20:13;;;;;;;10.32;1.95;;;13.00;99.90;;;;;;4882733;29;20441;-82
2023/05/16 07:22:40;;;;;;;12.73;2.20;;;13.20;99.90;;;;;;4896710;29;20085;-82
2023/05/16 07:25:11;;;;;;;12.65;2.47;;;13.30;99.90;;;;;;4897718;29;20045;-83
2023/05/16 07:30:23;;;;;;;17.48;2.22;;;13.50;99.90;;;;;;4881826;29;20116;-84
2023/05/16 07:32:50;;;;;;;8.85;2.17;;;13.50;99.90;;;;;;4882979;29;20037;-84
2023/05/16 07:35:17;;;;;;;7.20;2.03;;;13.60;99.90;;;;;;4882006;29;20041;-83
2023/05/16 07:37:45;;;;;;;7.57;2.17;;;13.80;99.90;;;;;;4882778;29;20051;-84
2023/05/16 07:40:12;;;;;;;9.90;2.22;;;13.90;99.90;;;;;;4882319;29;20037;-84
2023/05/16 07:42:41;;;;;;;13.18;2.80;;;14.00;99.90;;;;;;4883947;29;20112;-85
2023/05/16 07:45:08;;;;;;;10.20;2.10;;;14.10;99.90;;;;;;4882921;29;20123;-83
2023/05/16 07:47:35;;;;;;;7.28;1.70;;;14.30;99.90;;;;;;4882807;29;20105;-82
2023/05/16 07:50:02;;;;;;;8.02;1.80;;;14.30;99.90;;;;;;4880771;29;20059;-82
2023/05/16 07:52:29;;;;;;;9.30;1.80;;;14.40;99.90;;;;;;4882178;29;20481;-82
2023/05/16 07:54:56;;;;;;;7.93;1.90;;;14.50;99.90;;;;;;4898129;29;20135;-82
2023/05/16 07:57:25;;;;;;;10.85;1.98;;;14.60;99.90;;;;;;4866353;29;20144;-83
2023/05/16 07:59:51;;;;;;;9.55;1.98;;;14.50;99.90;;;;;;4881319;29;20059;-84
2023/05/16 08:02:18;;;;;;;9.98;1.90;;;14.60;99.90;;;;;;4881527;29;20053;-84
2023/05/16 08:04:45;;;;;;;11.65;1.75;;;14.70;99.90;;;;;;4882254;29;20045;-84
2023/05/16 08:07:12;;;;;;;6.70;1.85;;;14.90;99.90;;;;;;4896809;29;20068;-84
2023/05/16 08:09:39;;;;;;;14.43;1.92;;;14.90;99.90;;;;;;4881178;29;20055;-83
2023/05/16 08:12:06;;;;;;;9.50;1.50;;;14.80;99.90;;;;;;4872540;29;20048;-85
2023/05/16 08:14:32;;;;;;;6.97;1.70;;;14.90;99.90;;;;;;4899541;29;20460;-86
2023/05/16 08:17:01;;;;;;;12.23;2.50;;;14.90;99.90;;;;;;4904651;29;20128;-85
2023/05/16 08:19:28;;;;;;;9.60;2.30;;;14.90;99.90;;;;;;4880207;29;20081;-85
2023/05/16 08:21:55;;;;;;;11.52;1.92;;;15.20;99.90;;;;;;4880841;29;20096;-86
2023/05/16 08:24:22;;;;;;;10.30;2.08;;;15.40;99.90;;;;;;4881253;29;20048;-88
2023/05/16 08:26:50;;;;;;;11.80;1.98;;;15.50;99.90;;;;;;4879908;29;20068;-84
2023/05/16 08:29:17;;;;;;;6.38;1.65;;;15.60;99.90;;;;;;4879614;29;20574;-84
2023/05/16 08:31:43;;;;;;;9.55;1.80;;;15.70;99.90;;;;;;4880773;29;20464;-85
2023/05/16 08:34:10;;;;;;;8.40;1.98;;;15.80;99.90;;;;;;4904052;29;20052;-85
2023/05/16 08:39:23;;;;;;;6.97;1.30;;;16.00;99.90;;;;;;4895622;29;20060;-85
2023/05/16 08:41:50;;;;;;;11.23;1.70;;;16.30;99.90;;;;;;4879877;29;20069;-85
2023/05/16 08:44:20;;;;;;;9.90;1.60;;;16.20;99.90;;;;;;4865143;29;20057;-86
2023/05/16 08:46:50;;;;;;;8.25;1.50;;;16.00;99.90;;;;;;4863460;29;20532;-86
2023/05/16 08:49:16;;;;;;;6.57;1.70;;;16.30;99.90;;;;;;4864665;29;20044;-85
2023/05/16 08:51:46;;;;;;;9.98;2.13;;;16.30;99.90;;;;;;4875938;29;20132;-82
2023/05/16 08:54:13;;;;;;;6.68;1.60;;;16.40;99.90;;;;;;4880291;29;20045;-84
2023/05/16 08:56:40;;;;;;;14.38;1.92;;;16.50;99.90;;;;;;4872490;29;20045;-84
2023/05/16 08:59:06;;;;;;;9.75;1.40;;;16.60;99.90;;;;;;4895286;29;20176;-86
2023/05/16 09:01:33;;;;;;;10.82;1.63;;;16.70;99.90;;;;;;4864326;29;20053;-83
2023/05/16 09:04:00;;;;;;;3.47;1.20;;;16.80;99.90;;;;;;4864303;29;20045;-85
2023/05/16 09:06:29;;;;;;;9.05;1.63;;;16.80;99.90;;;;;;4897557;29;20055;-85
2023/05/16 09:08:56;;;;;;;7.93;1.80;;;16.90;99.90;;;;;;4861965;29;20109;-85
2023/05/16 09:11:23;;;;;;;5.68;1.50;;;16.90;99.90;;;;;;4876689;29;20113;-85
2023/05/16 09:13:50;;;;;;;5.97;1.27;;;16.90;99.90;;;;;;4877151;29;20061;-85
2023/05/16 09:16:18;;;;;;;6.65;1.60;;;17.00;99.90;;;;;;4872804;29;20053;-85
2023/05/16 09:18:45;;;;;;;6.90;1.50;;;16.90;99.90;;;;;;4864108;29;20183;-85
2023/05/16 09:21:12;;;;;;;7.07;1.30;;;16.70;99.90;;;;;;4864568;29;20139;-85
2023/05/16 09:23:39;;;;;;;4.32;1.30;;;16.90;99.90;;;;;;4879349;29;20049;-86
2023/05/16 09:28:51;;;;;;;8.07;1.73;;;17.40;99.90;;;;;;4880033;29;20048;-85
2023/05/16 09:31:18;;;;;;;9.75;1.60;;;17.20;99.90;;;;;;4858631;29;20074;-84
2023/05/16 09:33:45;;;;;;;6.47;1.58;;;17.60;99.90;;;;;;4863900;29;20092;-86
2023/05/16 09:38:41;;;;;;;9.85;1.70;;;17.90;99.90;;;;;;4880051;29;20069;-84
2023/05/16 09:41:08;;;;;;;8.02;1.88;;;18.10;99.90;;;;;;4864740;29;20148;-85
2023/05/16 09:43:34;;;;;;;7.68;1.52;;;17.80;99.90;;;;;;4883325;29;20044;-84
2023/05/16 09:46:05;;;;;;;5.35;1.30;;;17.80;99.90;;;;;;4898436;29;20468;-85
2023/05/16 09:48:31;;;;;;;5.28;1.55;;;17.70;99.90;;;;;;4897557;29;20254;-84
2023/05/16 09:51:03;;;;;;;7.72;1.55;;;17.90;99.90;;;;;;4867944;29;20087;-85
2023/05/16 09:53:29;;;;;;;6.15;1.25;;;18.10;99.70;;;;;;4883112;29;20436;-84
2023/05/16 09:55:56;;;;;;;6.85;1.38;;;18.40;99.90;;;;;;4882437;29;20041;-84
2023/05/16 09:58:23;;;;;;;4.60;1.20;;;18.40;99.80;;;;;;4882611;29;20053;-84
2023/05/16 10:00:50;;;;;;;4.38;1.40;;;18.50;98.70;;;;;;4898353;29;20046;-83
2023/05/16 10:03:16;;;;;;;9.85;1.60;;;18.70;98.50;;;;;;4878459;29;20389;-83
2023/05/16 10:05:43;;;;;;;5.25;1.40;;;18.80;97.00;;;;;;4869389;29;20060;-83
2023/05/16 10:08:10;;;;;;;7.50;1.60;;;19.10;96.50;;;;;;4898123;29;20041;-85
2023/05/16 10:10:37;;;;;;;6.00;1.40;;;19.10;96.90;;;;;;4866277;29;20152;-87
2023/05/16 10:13:04;;;;;;;7.68;1.60;;;18.80;95.70;;;;;;4882971;29;20076;-88
2023/05/16 10:15:30;;;;;;;6.18;1.20;;;18.50;96.70;;;;;;4866928;29;20053;-84
2023/05/16 10:18:02;;;;;;;7.45;1.52;;;18.00;95.10;;;;;;4882415;29;20469;-84
2023/05/16 10:20:29;;;;;;;;;;;17.60;96.00;;;;;;4883417;29;20084;-86
2023/05/16 10:22:55;;;;;;;6.82;1.42;;;17.60;95.70;;;;;;4882760;29;19934;-85
2023/05/16 10:25:22;;;;;;;6.45;1.42;;;17.80;95.70;;;;;;4866665;29;20065;-88
2023/05/16 10:27:49;;;;;;;7.15;1.55;;;18.00;95.20;;;;;;4898408;29;20075;-88
2023/05/16 10:30:16;;;;;;;5.78;1.48;;;18.40;95.90;;;;;;4866899;29;20488;-86
2023/05/16 10:32:43;;;;;;;9.40;1.50;;;19.00;97.70;;;;;;4869402;29;20465;-85
2023/05/16 10:35:10;;;;;;;8.40;1.73;;;19.80;95.70;;;;;;4868622;29;20113;-86
2023/05/16 10:37:36;;;;;;;5.13;1.50;;;19.80;93.10;;;;;;4884833;29;20472;-86
2023/05/16 10:40:04;;;;;;;4.57;1.83;;;19.10;91.70;;;;;;4878898;29;20057;-83
2023/05/16 10:42:31;;;;;;;4.97;1.27;;;18.60;91.60;;;;;;4886018;29;20128;-83
2023/05/16 10:44:58;;;;;;;6.95;1.50;;;18.20;91.60;;;;;;4870212;29;20053;-83
2023/05/16 10:47:32;;;;;;;6.75;1.42;;;18.40;93.40;;;;;;4887886;29;20128;-83
2023/05/16 10:49:59;;;;;;;6.75;1.17;;;19.10;91.30;;;;;;4887902;29;20041;-86
2023/05/16 10:52:25;;;;;;;7.05;1.50;;;19.80;91.20;;;;;;4900832;29;20053;-85
2023/05/16 10:54:52;;;;;;;6.75;1.40;;;20.50;88.90;;;;;;4871102;29;20140;-85
2023/05/16 10:57:20;;;;;;;6.07;1.33;;;21.00;89.80;;;;;;4873029;29;20082;-85
2023/05/16 10:59:47;;;;;;;8.90;1.48;;;21.60;82.90;;;;;;4877512;29;20060;-87
2023/05/16 11:02:14;;;;;;;8.93;1.80;;;22.00;86.00;;;;;;4876669;29;20087;-85
2023/05/16 11:04:41;;;;;;;8.95;1.65;;;21.80;83.40;;;;;;4904018;29;20069;-86
2023/05/16 11:07:08;;;;;;;9.35;1.83;;;21.60;84.70;;;;;;4886386;29;20052;-88
2023/05/16 11:09:34;;;;;;;7.22;1.85;;;21.70;82.90;;;;;;4873345;29;20041;-87
2023/05/16 11:12:02;;;;;;;8.07;1.88;;;21.20;82.50;;;;;;4865832;29;20067;-86
2023/05/16 11:14:30;;;;;;;6.50;1.95;;;21.80;81.00;;;;;;4865845;29;20090;-88
2023/05/16 11:16:59;;;;;;;5.78;1.35;;;22.40;80.80;;;;;;4871103;29;20140;-85
2023/05/16 11:19:25;;;;;;;6.10;1.73;;;22.20;79.00;;;;;;4881734;29;20129;-86
2023/05/16 11:21:52;;;;;;;7.13;1.50;;;21.30;76.60;;;;;;4882076;29;20060;-84
2023/05/16 11:24:19;;;;;;;6.15;1.70;;;20.30;77.90;;;;;;4865990;29;20139;-88
2023/05/16 11:29:59;;;;;;;4.75;1.50;;;20.20;78.80;;;;;;4880618;29;20169;-87
2023/05/16 11:32:29;;;;;;;7.60;1.50;;;20.70;77.00;;;;;;4866631;29;20081;-87
2023/05/16 11:34:56;;;;;;;8.38;1.92;;;21.50;80.20;;;;;;4866320;29;20053;-84
2023/05/16 11:37:25;;;;;;;7.00;1.65;;;22.20;72.30;;;;;;4865168;29;20053;-86
2023/05/16 11:39:52;;;;;;;8.45;1.90;;;22.50;72.30;;;;;;4881534;29;20053;-84
2023/05/16 11:42:19;;;;;;;8.68;1.40;;;22.50;72.30;;;;;;4896127;29;20099;-84
2023/05/16 11:44:46;;;;;;;8.32;1.70;;;22.60;73.50;;;;;;4882190;29;20455;-85
2023/05/16 11:47:15;;;;;;;10.30;1.98;;;23.10;71.80;;;;;;4881391;29;20136;-86
2023/05/16 11:49:42;;;;;;;6.03;1.40;;;23.20;71.10;;;;;;4881062;29;20173;-87
2023/05/16 11:52:09;;;;;;;11.52;1.73;;;22.80;69.60;;;;;;4881561;29;20095;-86
2023/05/16 11:54:36;;;;;;;7.18;1.88;;;22.40;68.00;;;;;;4866499;29;20053;-89
2023/05/16 11:59:52;;;;;;;7.07;1.95;;;23.30;69.10;;;;;;4863229;29;20125;-86
2023/05/16 12:02:18;;;;;;;10.23;1.83;;;23.80;67.90;;;;;;4892471;29;20105;-87
2023/05/16 12:04:45;;;;;;;7.53;1.98;;;23.80;66.40;;;;;;4894320;29;20476;-86
2023/05/16 12:07:13;;;;;;;7.65;1.58;;;23.40;66.00;;;;;;4882246;29;20053;-87
2023/05/16 12:09:40;;;;;;;8.45;2.20;;;23.30;68.30;;;;;;4896056;29;20391;-88
2023/05/16 12:12:07;;;;;;;8.52;2.15;;;24.00;66.30;;;;;;4896732;29;20104;-88
2023/05/16 12:14:34;;;;;;;7.40;2.13;;;24.20;66.30;;;;;;4881215;29;20049;-88
2023/05/16 12:19:53;;;;;;;9.05;2.22;;;24.60;62.90;;;;;;4896699;29;20056;-88
2023/05/16 12:22:20;;;;;;;10.55;1.90;;;24.30;64.80;;;;;;4880556;29;20080;-87
2023/05/16 12:24:46;;;;;;;7.82;2.20;;;24.20;61.40;;;;;;4881279;29;20476;-87
2023/05/16 12:29:59;;;;;;;6.07;1.83;;;24.80;61.60;;;;;;4896022;29;20132;-86
2023/05/16 12:32:25;;;;;;;5.82;1.58;;;25.10;60.60;;;;;;4896565;29;20037;-86
2023/05/16 12:34:53;;;;;;;9.23;2.05;;;24.60;60.70;;;;;;4880815;29;20063;-87
2023/05/16 12:40:08;;;;;;;6.68;1.73;;;24.00;60.20;;;;;;4890887;29;20053;-86
2023/05/16 12:42:35;;;;;;;6.80;1.83;;;24.40;60.50;;;;;;4861113;29;20132;-85
2023/05/16 12:45:03;;;;;;;6.57;1.70;;;24.20;59.70;;;;;;4861815;29;20064;-86
2023/05/16 12:47:29;;;;;;;7.93;1.83;;;24.30;58.40;;;;;;4861937;29;20133;-86
2023/05/16 12:49:56;;;;;;;6.03;1.95;;;24.60;59.40;;;;;;4861480;29;20077;-85
2023/05/16 12:52:25;;;;;;;7.57;1.98;;;25.10;58.90;;;;;;4861574;29;20118;-85
2023/05/16 12:54:52;;;;;;;9.32;2.25;;;25.50;61.30;;;;;;4861522;29;20081;-85
2023/05/16 12:57:19;;;;;;;4.93;1.77;;;25.60;59.50;;;;;;4861082;29;20060;-85
2023/05/16 12:59:46;;;;;;;9.45;2.10;;;25.60;58.70;;;;;;4861325;29;20053;-85
2023/05/16 13:02:12;;;;;;;8.85;2.10;;;25.50;60.30;;;;;;4860924;29;20092;-85
2023/05/16 13:04:40;;;;;;;7.70;2.20;;;24.60;57.90;;;;;;4861748;29;20088;-85
2023/05/16 13:09:36;;;;;;;10.88;2.30;;;24.80;59.70;;;;;;4886037;29;20041;-84
2023/05/16 13:12:04;;;;;;;11.30;2.20;;;24.40;60.10;;;;;;4864234;29;20064;-87
2023/05/16 13:14:31;;;;;;;9.25;2.40;;;24.30;58.70;;;;;;4862921;29;20120;-85
2023/05/16 13:16:59;;;;;;;8.73;2.30;;;24.20;59.90;;;;;;4864909;29;20049;-86
2023/05/16 13:19:26;;;;;;;7.72;2.10;;;24.20;60.40;;;;;;4865400;29;20053;-87
2023/05/16 13:21:53;;;;;;;6.80;2.08;;;24.30;58.40;;;;;;4864514;29;20057;-86
2023/05/16 13:24:20;;;;;;;8.10;1.95;;;24.60;58.40;;;;;;4865503;29;20128;-87
2023/05/16 13:29:33;;;;;;;7.47;2.10;;;24.60;58.10;;;;;;4862559;29;20061;-88
2023/05/16 13:31:59;;;;;;;7.50;2.22;;;25.00;59.40;;;;;;4865774;29;20050;-86
2023/05/16 13:34:26;;;;;;;5.85;2.08;;;25.30;59.40;;;;;;4862613;29;20136;-88
2023/05/16 13:39:40;;;;;;;8.65;2.10;;;25.10;58.50;;;;;;4877567;29;20476;-87
2023/05/16 13:42:07;;;;;;;9.90;2.13;;;25.00;59.60;;;;;;4860631;29;20037;-84
2023/05/16 13:44:33;;;;;;;6.93;2.00;;;24.90;59.40;;;;;;4862106;29;20053;-85
2023/05/16 13:47:00;;;;;;;8.85;2.20;;;25.40;59.20;;;;;;4862012;29;20045;-84
2023/05/16 13:49:27;;;;;;;7.75;2.20;;;25.90;57.50;;;;;;4861162;29;20046;-81
2023/05/16 13:51:56;;;;;;;9.10;2.00;;;25.90;56.60;;;;;;4862316;29;20109;-83
2023/05/16 13:54:22;;;;;;;7.10;2.03;;;25.40;56.80;;;;;;4862102;29;20469;-83
2023/05/16 13:56:50;;;;;;;7.30;2.28;;;25.70;58.40;;;;;;4860785;29;20045;-84
2023/05/16 13:59:17;;;;;;;8.50;2.45;;;26.10;57.00;;;;;;4877274;29;20541;-84
2023/05/16 14:02:04;;;;;;;8.27;2.08;;;25.50;57.30;;;;;;4872586;29;20061;-84
2023/05/16 14:04:30;;;;;;;6.53;2.00;;;25.80;57.90;;;;;;4880442;29;20060;-85
2023/05/16 14:09:27;;;;;;;7.45;2.20;;;26.30;58.60;;;;;;4894255;29;20426;-85
2023/05/16 14:11:54;;;;;;;6.47;2.20;;;26.60;57.50;;;;;;4880633;29;20552;-85
2023/05/16 14:14:20;;;;;;;8.25;2.28;;;27.20;59.20;;;;;;4894993;29;20081;-85